createdAt,value
2019-03-04T00:01:46.092Z,99022.90
2019-03-04T00:04:18.570Z,99015.31
2019-03-04T00:06:50.270Z,99021.86
2019-03-04T00:09:22.009Z,99025.53
2019-03-04T00:11:53.638Z,99028.61
2019-03-04T00:14:25.379Z,99031.45
2019-03-04T00:16:58.581Z,99045.16
2019-03-04T00:19:30.420Z,99034.27
2019-03-04T00:22:02.151Z,99040.70
2019-03-04T00:24:34.782Z,99030.88
2019-03-04T00:27:06.379Z,99043.93
2019-03-04T00:29:37.965Z,99055.86
2019-03-04T00:32:09.613Z,99060.45
2019-03-04T00:34:44.510Z,99065.03
2019-03-04T00:37:16.369Z,99061.80
2019-03-04T00:39:48.417Z,99065.42
2019-03-04T00:42:23.140Z,99068.00
2019-03-04T00:44:54.890Z,99081.06
2019-03-04T00:47:26.756Z,99079.59
2019-03-04T00:49:58.561Z,99079.08
2019-03-04T00:52:29.961Z,99078.08
2019-03-04T00:55:05.071Z,99079.37
2019-03-04T00:57:36.736Z,99069.85
2019-03-04T01:00:13.713Z,99072.28
2019-03-04T01:02:45.487Z,99069.36
2019-03-04T01:05:17.363Z,99070.28
2019-03-04T01:07:49.080Z,99068.58
2019-03-04T01:10:21.070Z,99066.98
2019-03-04T01:12:52.754Z,99062.52
2019-03-04T01:15:25.254Z,99062.52
2019-03-04T01:17:57.865Z,99057.86
2019-03-04T01:20:29.612Z,99055.60
2019-03-04T01:23:01.347Z,99049.17
2019-03-04T01:25:33.409Z,99055.07
2019-03-04T01:28:05.031Z,99051.01
2019-03-04T01:30:39.255Z,99051.31
2019-03-04T01:33:10.959Z,99046.21
2019-03-04T01:35:43.533Z,99038.09
2019-03-04T01:38:15.594Z,99030.63
2019-03-04T01:40:47.346Z,99017.37
2019-03-04T01:43:19.029Z,99022.84
2019-03-04T01:45:50.850Z,99019.49
2019-03-04T01:48:23.838Z,99018.95
2019-03-04T01:50:55.411Z,99021.55
2019-03-04T01:53:27.043Z,99018.73
2019-03-04T01:55:59.038Z,99016.58
2019-03-04T01:58:30.649Z,99019.27
2019-03-04T02:01:02.570Z,99011.17
2019-03-04T02:03:34.476Z,99009.77
2019-03-04T02:06:06.145Z,99012.63
2019-03-04T02:08:37.804Z,99008.63
2019-03-04T02:11:09.473Z,99003.22
2019-03-04T02:13:41.005Z,98998.77
2019-03-04T02:16:12.905Z,99003.83
2019-03-04T02:18:44.582Z,99005.06
2019-03-04T02:21:16.295Z,98994.16
2019-03-04T02:23:48.477Z,98995.42
2019-03-04T02:26:27.359Z,98992.34
2019-03-04T02:28:59.383Z,98991.02
2019-03-04T02:31:31.013Z,98987.44
2019-03-04T02:34:03.177Z,98982.27
2019-03-04T02:36:34.960Z,98984.59
2019-03-04T02:39:08.000Z,98980.80
2019-03-04T02:41:39.715Z,98983.80
2019-03-04T02:44:11.388Z,98979.78
2019-03-04T02:46:43.153Z,98986.91
2019-03-04T02:49:14.933Z,98981.95
2019-03-04T02:51:46.818Z,98974.89
2019-03-04T02:54:18.487Z,98973.45
2019-03-04T02:56:50.093Z,98968.62
2019-03-04T02:59:21.732Z,98971.70
2019-03-04T03:01:53.289Z,98966.34
2019-03-04T03:04:24.946Z,98969.23
2019-03-04T03:06:57.050Z,98977.17
2019-03-04T03:09:28.671Z,98968.05
2019-03-04T03:12:00.464Z,98966.58
2019-03-04T03:14:32.121Z,98969.78
2019-03-04T03:17:05.095Z,98965.21
2019-03-04T03:19:36.842Z,98970.33
2019-03-04T03:22:08.677Z,98964.45
2019-03-04T03:24:40.483Z,98965.75
2019-03-04T03:27:12.729Z,98964.16
2019-03-04T03:29:44.443Z,98958.71
2019-03-04T03:32:16.264Z,98966.53
2019-03-04T03:34:47.848Z,98969.33
2019-03-04T03:37:19.525Z,98970.30
2019-03-04T03:39:51.250Z,98971.20
2019-03-04T03:42:23.112Z,98968.03
2019-03-04T03:44:54.914Z,98956.98
2019-03-04T03:47:26.609Z,98959.72
2019-03-04T03:49:58.750Z,98961.23
2019-03-04T03:52:30.373Z,98955.28
2019-03-04T03:55:02.030Z,98960.08
2019-03-04T03:57:33.786Z,98947.63
2019-03-04T04:00:07.240Z,98946.08
2019-03-04T04:02:39.087Z,98942.82
2019-03-04T04:05:10.982Z,98944.63
2019-03-04T04:07:42.854Z,98939.81
2019-03-04T04:10:15.154Z,98936.28
2019-03-04T04:12:47.098Z,98935.37
2019-03-04T04:15:19.256Z,98939.81
2019-03-04T04:17:50.820Z,98939.95
2019-03-04T04:20:22.583Z,98938.11
2019-03-04T04:22:54.283Z,98942.09
2019-03-04T04:25:26.123Z,98940.41
2019-03-04T04:27:57.982Z,98941.14
2019-03-04T04:30:31.432Z,98937.80
2019-03-04T04:33:03.490Z,98938.27
2019-03-04T04:35:35.428Z,98941.66
2019-03-04T04:38:07.002Z,98940.22
2019-03-04T04:40:38.819Z,98934.41
2019-03-04T04:43:10.616Z,98929.62
2019-03-04T04:45:42.378Z,98934.30
2019-03-04T04:48:14.081Z,98933.34
2019-03-04T04:50:45.685Z,98941.20
2019-03-04T04:53:17.319Z,98943.95
2019-03-04T04:55:49.063Z,98928.33
2019-03-04T04:58:20.756Z,98933.11
2019-03-04T05:00:53.080Z,98936.08
2019-03-04T05:03:24.753Z,98930.23
2019-03-04T05:05:56.400Z,98927.55
2019-03-04T05:08:27.981Z,98925.95
2019-03-04T05:10:59.681Z,98936.77
2019-03-04T05:13:31.593Z,98931.09
2019-03-04T05:16:03.490Z,98942.80
2019-03-04T05:18:35.107Z,98942.19
2019-03-04T05:21:06.855Z,98940.16
2019-03-04T05:23:38.538Z,98931.06
2019-03-04T05:26:10.390Z,98934.45
2019-03-04T05:28:42.383Z,98938.24
2019-03-04T05:31:14.017Z,98933.13
2019-03-04T05:33:45.604Z,98935.55
2019-03-04T05:36:17.286Z,98944.00
2019-03-04T05:38:48.952Z,98938.56
2019-03-04T05:41:20.630Z,98938.61
2019-03-04T05:43:52.576Z,98933.62
2019-03-04T05:46:24.270Z,98931.22
2019-03-04T05:48:56.015Z,98930.11
2019-03-04T05:51:27.652Z,98936.61
2019-03-04T05:53:59.300Z,98940.57
2019-03-04T05:56:30.954Z,98942.32
2019-03-04T05:59:02.759Z,98933.91
2019-03-04T06:01:36.859Z,98939.06
2019-03-04T06:04:13.683Z,98945.28
2019-03-04T06:06:55.272Z,98944.77
2019-03-04T06:09:27.253Z,98943.57
2019-03-04T06:11:58.892Z,98943.38
2019-03-04T06:14:30.880Z,98946.19
2019-03-04T06:17:02.695Z,98946.42
2019-03-04T06:19:34.798Z,98944.33
2019-03-04T06:22:07.126Z,98945.23
2019-03-04T06:24:38.639Z,98940.11
2019-03-04T06:27:10.822Z,98933.13
2019-03-04T06:29:42.808Z,98935.11
2019-03-04T06:32:14.606Z,98936.08
2019-03-04T06:34:46.338Z,98930.16
2019-03-04T06:37:17.958Z,98928.77
2019-03-04T06:39:50.236Z,98933.22
2019-03-04T06:42:22.061Z,98937.00
2019-03-04T06:44:53.969Z,98934.81
2019-03-04T06:47:25.617Z,98946.33
2019-03-04T06:49:57.205Z,98942.33
2019-03-04T06:52:29.342Z,98944.41
2019-03-04T06:55:22.572Z,98936.30
2019-03-04T06:57:55.700Z,98936.90
2019-03-04T07:00:57.871Z,98935.26
2019-03-04T07:03:46.602Z,98935.36
2019-03-04T07:06:18.278Z,98939.51
2019-03-04T07:09:17.235Z,98935.55
2019-03-04T07:11:53.704Z,98929.85
2019-03-04T07:14:25.575Z,98931.45
2019-03-04T07:16:57.298Z,98936.59
2019-03-04T07:19:31.437Z,98933.40
2019-03-04T07:22:03.395Z,98932.08
2019-03-04T07:24:35.010Z,98933.77
2019-03-04T07:27:06.788Z,98932.47
2019-03-04T07:29:38.488Z,98937.31
2019-03-04T07:32:10.355Z,98939.17
2019-03-04T07:34:42.400Z,98931.45
2019-03-04T07:37:17.002Z,98936.39
2019-03-04T07:39:48.630Z,98946.31
2019-03-04T07:42:21.474Z,98934.95
2019-03-04T07:44:54.477Z,98934.16
2019-03-04T07:47:26.406Z,98937.67
2019-03-04T07:49:58.120Z,98942.38
2019-03-04T07:52:30.192Z,98944.17
2019-03-04T07:55:02.325Z,98945.80
2019-03-04T07:57:34.583Z,98939.77
2019-03-04T08:00:07.157Z,98949.06
2019-03-04T08:02:39.142Z,98952.23
2019-03-04T08:05:11.460Z,98952.20
2019-03-04T08:07:49.485Z,98947.47
2019-03-04T08:11:33.863Z,98947.84
2019-03-04T08:14:06.268Z,98946.13
2019-03-04T08:16:38.430Z,98944.36
2019-03-04T08:19:10.303Z,98950.13
2019-03-04T08:21:42.679Z,98944.11
2019-03-04T08:24:14.682Z,98947.13
2019-03-04T08:26:46.512Z,98949.01
2019-03-04T08:29:18.500Z,98947.61
2019-03-04T08:31:50.201Z,98950.45
2019-03-04T08:34:30.725Z,98948.64
2019-03-04T08:36:56.179Z,98942.30
2019-03-04T08:39:30.218Z,98941.27
2019-03-04T08:42:02.541Z,98937.80
2019-03-04T08:44:34.310Z,98945.48
2019-03-04T08:47:06.712Z,98935.44
2019-03-04T08:49:38.983Z,98937.34
2019-03-04T08:52:11.182Z,98936.53
2019-03-04T08:54:43.673Z,98928.27
2019-03-04T08:57:15.864Z,98931.29
2019-03-04T08:59:48.373Z,98927.49
2019-03-04T09:02:20.105Z,98935.86
2019-03-04T09:04:52.286Z,98921.92
2019-03-04T09:07:24.028Z,98926.91
2019-03-04T09:09:55.510Z,98922.02
2019-03-04T09:12:28.000Z,98919.45
2019-03-04T09:15:00.322Z,98923.79
2019-03-04T09:17:33.142Z,98903.83
2019-03-04T09:20:05.947Z,98909.20
2019-03-04T09:22:37.784Z,98907.24
2019-03-04T09:25:14.837Z,98890.50
2019-03-04T09:27:48.280Z,98887.64
2019-03-04T09:30:22.143Z,98878.08
2019-03-04T09:32:53.991Z,98881.09
2019-03-04T09:35:26.000Z,98863.07
2019-03-04T09:37:57.954Z,98860.72
2019-03-04T09:40:31.531Z,98861.23
2019-03-04T09:43:03.169Z,98865.55
2019-03-04T09:45:38.766Z,98882.13
2019-03-04T09:48:08.260Z,98873.37
2019-03-04T09:50:39.983Z,98869.84
2019-03-04T09:53:11.705Z,98862.27
2019-03-04T09:55:44.437Z,98859.88
2019-03-04T09:58:17.083Z,98854.86
2019-03-04T10:01:26.862Z,98847.45
2019-03-04T10:04:32.159Z,98857.20
2019-03-04T10:08:02.984Z,98839.21
2019-03-04T10:11:39.245Z,98851.95
2019-03-04T10:15:25.280Z,98852.17
2019-03-04T10:19:07.655Z,98852.29
2019-03-04T10:22:16.117Z,98849.91
2019-03-04T10:25:16.876Z,98849.30
2019-03-04T10:28:46.389Z,98860.34
2019-03-04T10:31:59.368Z,98846.91
2019-03-04T10:35:11.450Z,98836.88
2019-03-04T10:38:30.279Z,98847.43
2019-03-04T10:41:47.881Z,98839.27
2019-03-04T10:44:55.325Z,98851.53
2019-03-04T10:47:27.154Z,98824.02
2019-03-04T10:49:59.034Z,98822.30
2019-03-04T10:52:31.235Z,98803.56
2019-03-04T10:55:03.162Z,98804.59
2019-03-04T10:57:35.145Z,98791.95
2019-03-04T11:00:15.479Z,98790.77
2019-03-04T11:02:47.360Z,98795.91
2019-03-04T11:05:19.750Z,98782.08
2019-03-04T11:07:51.516Z,98760.28
2019-03-04T11:10:23.276Z,98778.72
2019-03-04T11:12:55.682Z,98764.16
2019-03-04T11:15:28.125Z,98793.21
2019-03-04T11:18:00.560Z,98762.23
2019-03-04T11:20:32.563Z,98755.68
2019-03-04T11:23:04.730Z,98743.04
2019-03-04T11:25:36.672Z,98743.65
2019-03-04T11:28:08.538Z,98743.39
2019-03-04T11:30:40.829Z,98726.12
2019-03-04T11:33:12.629Z,98716.25
2019-03-04T11:35:44.429Z,98731.96
2019-03-04T11:38:42.664Z,98717.05
2019-03-04T11:41:21.901Z,98704.54
2019-03-04T11:43:53.859Z,98697.22
2019-03-04T11:46:25.705Z,98704.92
2019-03-04T11:48:57.495Z,98693.47
2019-03-04T11:51:29.287Z,98686.03
2019-03-04T11:54:01.807Z,98674.86
2019-03-04T11:56:37.084Z,98671.97
2019-03-04T12:07:25.356Z,98664.06
2019-03-04T12:09:57.450Z,98649.38
2019-03-04T12:12:29.410Z,98626.20
2019-03-04T12:15:01.606Z,98631.77
2019-03-04T12:17:33.831Z,98636.18
2019-03-04T12:20:06.686Z,98644.00
2019-03-04T12:22:38.603Z,98630.03
2019-03-04T12:25:13.660Z,98622.36
2019-03-04T12:27:47.718Z,98603.47
2019-03-04T12:30:20.655Z,98602.50
2019-03-04T12:32:52.545Z,98602.34
2019-03-04T12:35:24.423Z,98630.88
2019-03-04T12:38:03.187Z,98610.78
2019-03-04T12:40:35.062Z,98588.91
2019-03-04T12:43:06.898Z,98581.28
2019-03-04T12:45:38.755Z,98592.75
2019-03-04T12:48:11.520Z,98596.17
2019-03-04T12:50:43.208Z,98587.97
2019-03-04T12:53:14.930Z,98594.55
2019-03-04T12:55:46.961Z,98580.94
2019-03-04T12:58:19.216Z,98573.89
2019-03-04T13:00:50.882Z,98581.91
2019-03-04T13:03:26.735Z,98582.64
2019-03-04T13:05:58.463Z,98568.39
2019-03-04T13:08:30.247Z,98551.23
2019-03-04T13:11:02.043Z,98550.11
2019-03-04T13:13:34.285Z,98542.12
2019-03-04T13:16:06.433Z,98522.22
2019-03-04T13:18:38.159Z,98522.37
2019-03-04T13:21:10.649Z,98529.41
2019-03-04T13:23:43.365Z,98560.06
2019-03-04T13:26:15.209Z,98518.55
2019-03-04T13:28:47.647Z,98510.52
2019-03-04T13:31:19.341Z,98510.15
2019-03-04T13:33:51.273Z,98492.15
2019-03-04T13:36:23.134Z,98515.69
2019-03-04T13:38:55.557Z,98499.84
2019-03-04T13:41:27.336Z,98504.61
2019-03-04T13:43:59.213Z,98485.44
2019-03-04T13:46:31.100Z,98464.06
2019-03-04T13:49:02.960Z,98475.94
2019-03-04T13:51:35.088Z,98472.15
2019-03-04T13:54:07.476Z,98453.48
2019-03-04T13:56:40.100Z,98478.96
2019-03-04T13:59:12.873Z,98468.66
2019-03-04T14:01:44.436Z,98447.42
2019-03-04T14:04:16.058Z,98438.27
2019-03-04T14:06:47.918Z,98433.85
2019-03-04T14:09:21.754Z,98446.33
2019-03-04T14:11:53.633Z,98430.66
2019-03-04T14:14:25.776Z,98442.52
2019-03-04T14:16:58.080Z,98453.30
2019-03-04T14:19:30.238Z,98431.55
2019-03-04T14:22:02.334Z,98435.38
2019-03-04T14:24:35.271Z,98424.48
2019-03-04T14:27:07.972Z,98436.98
2019-03-04T14:29:39.967Z,98445.22
2019-03-04T14:32:11.592Z,98420.50
2019-03-04T14:34:43.891Z,98407.64
2019-03-04T14:37:18.207Z,98399.66
2019-03-04T14:39:50.361Z,98395.30
2019-03-04T14:42:22.662Z,98418.48
2019-03-04T14:44:54.597Z,98396.89
2019-03-04T14:47:26.411Z,98383.09
2019-03-04T14:50:09.203Z,98387.40
2019-03-04T14:52:33.466Z,98380.93
2019-03-04T14:55:05.439Z,98435.58
2019-03-04T14:57:37.604Z,98381.23
2019-03-04T15:00:25.646Z,98386.59
2019-03-04T15:02:57.719Z,98433.66
2019-03-04T15:05:29.782Z,98379.72
2019-03-04T15:08:01.679Z,98364.11
2019-03-04T15:10:34.896Z,98375.84
2019-03-04T15:13:07.189Z,98379.58
2019-03-04T15:15:39.493Z,98380.16
2019-03-04T15:18:11.809Z,98389.23
2019-03-04T15:20:46.442Z,98390.89
2019-03-04T15:23:18.878Z,98361.58
2019-03-04T15:25:50.579Z,98430.63
2019-03-04T15:28:28.254Z,98381.05
2019-03-04T15:31:04.169Z,98400.13
2019-03-04T15:33:38.358Z,98390.76
2019-03-04T15:36:09.955Z,98386.80
2019-03-04T15:38:42.345Z,98381.06
2019-03-04T15:41:14.090Z,98419.64
2019-03-04T15:43:45.959Z,98386.53
2019-03-04T15:46:18.561Z,98351.27
2019-03-04T15:48:50.959Z,98387.48
2019-03-04T15:51:23.126Z,98382.14
2019-03-04T15:53:55.847Z,98391.63
2019-03-04T15:56:28.097Z,98375.66
2019-03-04T15:59:00.294Z,98367.50
2019-03-04T16:01:32.259Z,98368.17
2019-03-04T16:04:04.199Z,98372.59
2019-03-04T16:06:36.316Z,98374.41
2019-03-04T16:09:16.145Z,98385.77
2019-03-04T16:11:48.231Z,98378.66
2019-03-04T16:14:20.280Z,98382.11
2019-03-04T16:16:52.795Z,98405.66
2019-03-04T16:19:24.903Z,98433.83
2019-03-04T16:21:56.834Z,98364.86
2019-03-04T16:24:28.774Z,98328.93
2019-03-04T16:27:09.182Z,98321.32
2019-03-04T16:29:41.018Z,98320.88
2019-03-04T16:32:14.686Z,98343.30
2019-03-04T16:34:46.397Z,98323.48
2019-03-04T16:37:18.567Z,98348.63
2019-03-04T16:39:50.880Z,98330.80
2019-03-04T16:42:22.683Z,98375.87
2019-03-04T16:44:54.601Z,98327.30
2019-03-04T16:47:27.005Z,98336.61
2019-03-04T16:49:58.927Z,98349.30
2019-03-04T16:52:32.662Z,98354.16
2019-03-04T16:55:05.700Z,98339.86
2019-03-04T16:57:37.930Z,98341.66
2019-03-04T17:00:13.108Z,98333.86
2019-03-04T17:02:46.138Z,98313.53
2019-03-04T17:05:19.240Z,98302.27
2019-03-04T17:07:52.121Z,98305.73
2019-03-04T17:10:24.268Z,98312.28
2019-03-04T17:12:56.172Z,98303.11
2019-03-04T17:15:28.110Z,98296.66
2019-03-04T17:17:59.789Z,98317.96
2019-03-04T17:20:31.908Z,98326.36
2019-03-04T17:23:04.278Z,98316.41
2019-03-04T17:25:36.996Z,98314.31
2019-03-04T17:28:09.878Z,98307.46
2019-03-04T17:30:43.035Z,98319.18
2019-03-04T17:33:15.775Z,98325.59
2019-03-04T17:35:48.163Z,98306.59
2019-03-04T17:38:20.964Z,98318.88
2019-03-04T17:40:56.404Z,98318.98
2019-03-04T17:43:28.501Z,98319.52
2019-03-04T17:46:01.667Z,98331.30
2019-03-04T17:48:33.797Z,98322.92
2019-03-04T17:51:06.295Z,98329.78
2019-03-04T17:53:38.805Z,98345.84
2019-03-04T17:56:11.020Z,98318.77
2019-03-04T17:58:43.708Z,98308.25
2019-03-04T18:01:15.961Z,98324.67
2019-03-04T18:03:48.906Z,98317.79
2019-03-04T18:06:20.907Z,98310.88
2019-03-04T18:08:53.145Z,98330.22
2019-03-04T18:11:25.653Z,98333.45
2019-03-04T18:13:57.834Z,98329.00
2019-03-04T18:16:30.120Z,98345.13
2019-03-04T18:19:03.494Z,98353.22
2019-03-04T18:21:37.701Z,98373.92
2019-03-04T18:24:09.872Z,98346.42
2019-03-04T18:27:17.592Z,98333.88
2019-03-04T18:30:50.247Z,98350.34
2019-03-04T18:34:32.366Z,98359.85
2019-03-04T18:37:58.582Z,98352.97
2019-03-04T18:41:49.288Z,98362.47
2019-03-04T18:45:29.887Z,98369.30
2019-03-04T18:48:56.523Z,98351.59
2019-03-04T18:51:32.909Z,98359.97
2019-03-04T18:54:11.872Z,98374.23
2019-03-04T18:56:46.119Z,98383.68
2019-03-04T18:59:18.370Z,98413.05
2019-03-04T19:01:51.027Z,98402.81
2019-03-04T19:04:23.298Z,98429.42
2019-03-04T19:06:56.470Z,98422.03
2019-03-04T19:09:33.011Z,98424.47
2019-03-04T19:12:06.177Z,98432.09
2019-03-04T19:14:39.690Z,98437.33
2019-03-04T19:17:11.904Z,98437.24
2019-03-04T19:19:45.787Z,98426.53
2019-03-04T19:22:20.297Z,98438.49
2019-03-04T19:24:53.250Z,98440.24
2019-03-04T19:27:25.061Z,98437.42
2019-03-04T19:29:57.760Z,98425.02
2019-03-04T19:32:33.773Z,98432.80
2019-03-04T19:35:06.963Z,98420.76
2019-03-04T19:37:39.515Z,98428.25
2019-03-04T19:40:12.609Z,98423.29
2019-03-04T19:42:47.173Z,98408.64
2019-03-04T19:45:20.748Z,98403.27
2019-03-04T19:47:54.836Z,98403.63
2019-03-04T19:50:27.122Z,98407.37
2019-03-04T19:52:59.347Z,98424.03
2019-03-04T19:55:31.576Z,98431.47
2019-03-04T19:58:04.073Z,98421.91
2019-03-04T20:00:36.302Z,98426.27
2019-03-04T20:03:10.218Z,98423.03
2019-03-04T20:05:48.231Z,98421.67
2019-03-04T20:08:21.644Z,98436.91
2019-03-04T20:10:54.764Z,98429.23
2019-03-04T20:13:27.863Z,98435.09
2019-03-04T20:16:00.238Z,98425.67
2019-03-04T20:18:32.281Z,98434.23
2019-03-04T20:21:05.895Z,98427.68
2019-03-04T20:23:39.258Z,98431.75
2019-03-04T20:26:11.482Z,98414.29
2019-03-04T20:28:45.697Z,98433.88
2019-03-04T20:31:18.502Z,98413.34
2019-03-04T20:33:51.115Z,98423.05
2019-03-04T20:36:23.439Z,98419.38
2019-03-04T20:38:55.671Z,98430.84
2019-03-04T20:41:28.143Z,98417.36
2019-03-04T20:44:00.405Z,98414.73
2019-03-04T20:46:32.381Z,98454.33
2019-03-04T20:49:04.649Z,98445.76
2019-03-04T20:51:38.430Z,98434.41
2019-03-04T20:54:11.114Z,98432.84
2019-03-04T20:56:43.221Z,98455.23
2019-03-04T20:59:16.839Z,98445.23
2019-03-04T21:01:49.703Z,98455.39
2019-03-04T21:04:21.789Z,98454.86
2019-03-04T21:06:53.977Z,98460.27
2019-03-04T21:09:26.825Z,98457.34
2019-03-04T21:11:59.007Z,98458.88
2019-03-04T21:14:31.122Z,98466.89
2019-03-04T21:17:02.813Z,98480.28
2019-03-04T21:19:34.623Z,98465.52
2019-03-04T21:22:06.755Z,98456.81
2019-03-04T21:24:39.180Z,98456.26
2019-03-04T21:27:11.492Z,98457.90
2019-03-04T21:30:31.842Z,98450.53
2019-03-04T21:33:21.889Z,98444.70
2019-03-04T21:37:02.438Z,98473.14
2019-03-04T21:39:36.776Z,98476.02
2019-03-04T21:42:38.286Z,98452.04
2019-03-04T21:45:38.381Z,98462.14
2019-03-04T21:48:32.383Z,98470.16
2019-03-04T21:51:38.201Z,98464.45
2019-03-04T21:54:08.811Z,98460.02
2019-03-04T21:57:23.239Z,98463.59
2019-03-04T21:59:55.046Z,98454.86
2019-03-04T22:02:45.803Z,98474.25
2019-03-04T22:05:18.401Z,98472.95
2019-03-04T22:07:50.756Z,98456.12
2019-03-04T22:10:22.602Z,98464.20
2019-03-04T22:12:54.525Z,98462.20
2019-03-04T22:15:27.718Z,98462.95
2019-03-04T22:18:00.074Z,98447.77
2019-03-04T22:20:32.012Z,98436.95
2019-03-04T22:23:04.015Z,98420.66
2019-03-04T22:25:36.074Z,98432.23
2019-03-04T22:28:08.211Z,98427.14
2019-03-04T22:30:40.262Z,98447.19
2019-03-04T22:33:11.903Z,98420.33
2019-03-04T22:35:43.612Z,98421.67
2019-03-04T22:38:16.154Z,98421.55
2019-03-04T22:40:49.351Z,98433.30
2019-03-04T22:43:21.010Z,98427.64
2019-03-04T22:45:52.907Z,98438.59
2019-03-04T22:48:25.165Z,98431.79
2019-03-04T22:50:56.977Z,98441.86
2019-03-04T22:53:28.896Z,98440.66
2019-03-04T22:56:00.864Z,98418.56
2019-03-04T22:58:32.904Z,98419.88
2019-03-04T23:01:39.978Z,98430.72
2019-03-04T23:05:13.807Z,98430.97
2019-03-04T23:07:53.312Z,98426.52
2019-03-04T23:10:59.712Z,98444.97
2019-03-04T23:14:05.131Z,98439.48
2019-03-04T23:16:37.499Z,98438.39
2019-03-04T23:19:09.203Z,98445.57
2019-03-04T23:21:43.365Z,98441.08
2019-03-04T23:24:14.900Z,98435.08
2019-03-04T23:26:46.573Z,98443.51
2019-03-04T23:29:18.328Z,98450.10
2019-03-04T23:31:50.560Z,98441.02
2019-03-04T23:34:22.208Z,98457.17
2019-03-04T23:36:53.817Z,98463.86
2019-03-04T23:39:25.452Z,98460.83
2019-03-04T23:41:57.534Z,98472.47
2019-03-04T23:44:29.345Z,98471.67
2019-03-04T23:47:01.004Z,98474.44
2019-03-04T23:49:33.101Z,98468.06
2019-03-04T23:52:05.258Z,98464.98
2019-03-04T23:54:37.371Z,98470.45
2019-03-04T23:57:09.285Z,98470.13
2019-03-04T23:59:42.593Z,98472.04
